Time;durP1;ratioP1;P1;durP2;ratioP2;P2;SDS_P1;SDS_P2;PMS_P1;PMS_P2;Temp;Humidity;BMP_temperature;BMP_pressure;BME280_temperature;BME280_humidity;BME280_pressure;Samples;Min_cycle;Max_cycle;Signal;HPM_P1;HPM_P2
2021/05/08 00:02:05;;;;;;;1.48;1.05;;;22.90;40.10;;;;;;5038607;28;20037;-56
2021/05/08 00:04:31;;;;;;;1.58;0.95;;;22.90;40.10;;;;;;5045531;28;20033;-56
2021/05/08 00:06:58;;;;;;;1.90;1.10;;;22.90;40.10;;;;;;5046578;28;20045;-54
2021/05/08 00:09:24;;;;;;;1.42;0.90;;;22.90;40.10;;;;;;5047613;28;20036;-57
2021/05/08 00:11:53;;;;;;;1.33;0.90;;;22.90;40.10;;;;;;5046081;28;20372;-58
2021/05/08 00:14:18;;;;;;;1.15;0.98;;;22.90;40.10;;;;;;5046048;28;20070;-61
2021/05/08 00:16:44;;;;;;;1.45;0.90;;;22.90;40.10;;;;;;5045125;28;20081;-59
2021/05/08 00:19:10;;;;;;;2.13;0.90;;;22.90;40.00;;;;;;5046463;28;20024;-56
2021/05/08 00:21:35;;;;;;;1.60;1.00;;;22.90;40.00;;;;;;5045924;28;20034;-59
2021/05/08 00:24:01;;;;;;;2.50;1.00;;;22.90;40.10;;;;;;5031257;28;20083;-57
2021/05/08 00:26:26;;;;;;;1.38;0.90;;;22.90;40.00;;;;;;5038247;28;20337;-59
2021/05/08 00:28:56;;;;;;;1.55;0.93;;;22.90;40.00;;;;;;5049592;28;20032;-58
2021/05/08 00:31:22;;;;;;;1.67;1.17;;;22.90;40.00;;;;;;5045678;28;20055;-62
2021/05/08 00:33:48;;;;;;;1.30;0.82;;;22.90;40.00;;;;;;5053166;28;20025;-58
2021/05/08 00:36:14;;;;;;;1.20;0.90;;;22.90;40.00;;;;;;5054261;28;20029;-57
2021/05/08 00:38:40;;;;;;;1.35;1.00;;;22.90;39.90;;;;;;5046044;28;20472;-55
2021/05/08 00:41:06;;;;;;;1.80;1.00;;;22.90;40.50;;;;;;5044087;28;20044;-60
2021/05/08 00:43:32;;;;;;;1.58;0.95;;;22.90;39.90;;;;;;5044299;28;20821;-58
2021/05/08 00:45:57;;;;;;;2.13;1.00;;;22.90;39.90;;;;;;5044211;28;20029;-61
2021/05/08 00:48:24;;;;;;;1.33;0.90;;;22.90;39.90;;;;;;5045023;28;20506;-59
2021/05/08 00:50:51;;;;;;;1.27;0.90;;;22.90;39.90;;;;;;5029869;28;20499;-58
2021/05/08 00:53:18;;;;;;;1.60;1.00;;;22.90;39.90;;;;;;5045511;28;20025;-58
2021/05/08 00:55:44;;;;;;;1.40;0.90;;;22.90;39.90;;;;;;5045302;28;20057;-58
2021/05/08 00:58:10;;;;;;;1.70;1.00;;;22.90;39.80;;;;;;5044684;28;20825;-58
2021/05/08 01:00:37;;;;;;;1.60;0.80;;;22.90;39.80;;;;;;5035043;28;20044;-59
2021/05/08 01:03:05;;;;;;;1.58;0.85;;;22.90;39.90;;;;;;5042631;28;20025;-61
2021/05/08 01:05:34;;;;;;;1.13;0.90;;;22.90;39.90;;;;;;5047423;28;20062;-57
2021/05/08 01:08:04;;;;;;;1.25;0.90;;;22.90;39.80;;;;;;5047542;28;20371;-59
2021/05/08 01:10:30;;;;;;;1.15;0.93;;;22.80;39.80;;;;;;5045128;28;20746;-59
2021/05/08 01:12:57;;;;;;;1.25;0.90;;;22.80;39.80;;;;;;5046697;28;20035;-58
2021/05/08 01:15:23;;;;;;;1.50;0.95;;;22.80;39.90;;;;;;5033737;28;20112;-57
2021/05/08 01:17:50;;;;;;;1.55;0.90;;;22.80;39.90;;;;;;5037764;28;20097;-53
2021/05/08 01:20:16;;;;;;;1.00;0.80;;;22.80;39.90;;;;;;5034818;28;20518;-54
2021/05/08 01:22:42;;;;;;;1.00;0.90;;;22.70;39.80;;;;;;5049004;28;20526;-55
2021/05/08 01:25:14;;;;;;;1.42;0.93;;;22.70;39.90;;;;;;5042735;28;20080;-56
2021/05/08 01:27:59;;;;;;;1.63;1.00;;;22.70;39.90;;;;;;5042824;28;20049;-56
2021/05/08 01:30:28;;;;;;;1.13;0.90;;;22.70;39.90;;;;;;5033779;28;20086;-57
2021/05/08 01:32:54;;;;;;;1.58;0.90;;;22.70;39.90;;;;;;5039852;28;20040;-57
2021/05/08 01:35:19;;;;;;;1.77;0.90;;;22.70;39.90;;;;;;5034732;28;20104;-51
2021/05/08 01:37:46;;;;;;;1.02;0.80;;;22.60;39.90;;;;;;5040922;28;20113;-56
2021/05/08 01:40:14;;;;;;;1.52;0.82;;;22.60;39.90;;;;;;5044855;28;20040;-55
2021/05/08 01:42:40;;;;;;;1.20;0.82;;;22.60;40.00;;;;;;5041812;28;20490;-52
2021/05/08 01:45:20;;;;;;;1.25;0.90;;;22.60;40.00;;;;;;5026073;28;20083;-59
2021/05/08 01:57:38;;;;;;;1.30;0.90;;;22.50;39.90;;;;;;5039576;28;20305;-55
2021/05/08 02:00:08;;;;;;;1.80;0.90;;;22.50;40.00;;;;;;5041047;28;20032;-55
2021/05/08 02:02:34;;;;;;;0.93;0.80;;;22.40;40.00;;;;;;5044837;28;20114;-55
2021/05/08 02:05:00;;;;;;;1.08;0.80;;;22.40;40.00;;;;;;5042607;28;20057;-51
2021/05/08 02:07:25;;;;;;;1.33;0.90;;;22.30;40.00;;;;;;5037943;28;20599;-59
2021/05/08 02:09:51;;;;;;;1.70;0.90;;;22.30;40.00;;;;;;5042490;28;20047;-57
2021/05/08 02:12:16;;;;;;;1.20;0.90;;;22.30;40.00;;;;;;5034089;28;20037;-56
2021/05/08 02:14:42;;;;;;;1.20;0.82;;;22.30;40.00;;;;;;5037966;28;20112;-55
2021/05/08 02:17:07;;;;;;;1.42;0.90;;;22.30;40.00;;;;;;5031291;28;20132;-56
2021/05/08 02:19:33;;;;;;;1.48;0.90;;;22.30;40.10;;;;;;5047476;28;20421;-55
2021/05/08 02:21:59;;;;;;;1.00;0.82;;;22.20;40.00;;;;;;5047451;28;20059;-57
2021/05/08 02:24:24;;;;;;;1.42;0.90;;;22.30;40.00;;;;;;5046459;28;20209;-57
2021/05/08 02:26:50;;;;;;;0.90;0.80;;;22.30;40.00;;;;;;5024458;28;20125;-52
2021/05/08 02:29:15;;;;;;;0.98;0.80;;;22.20;40.00;;;;;;5034914;28;20057;-57
2021/05/08 02:31:41;;;;;;;0.90;0.80;;;22.20;40.00;;;;;;5039050;28;20036;-57
2021/05/08 02:34:07;;;;;;;1.08;0.88;;;22.20;40.10;;;;;;5046382;28;20366;-54
2021/05/08 02:36:32;;;;;;;1.00;0.80;;;22.20;40.10;;;;;;5046529;28;20037;-53
2021/05/08 02:38:58;;;;;;;1.27;0.90;;;22.20;40.10;;;;;;5038449;28;20090;-59
2021/05/08 02:41:23;;;;;;;1.27;0.80;;;22.10;40.00;;;;;;5038584;28;20078;-53
2021/05/08 02:43:49;;;;;;;0.93;0.80;;;22.10;40.10;;;;;;5041823;28;20107;-53
2021/05/08 02:46:15;;;;;;;1.60;0.88;;;22.10;40.10;;;;;;5043309;28;20379;-61
2021/05/08 02:48:40;;;;;;;1.35;0.90;;;22.10;40.10;;;;;;5038817;28;20029;-57
2021/05/08 02:51:06;;;;;;;0.93;0.80;;;22.10;40.10;;;;;;5031302;28;20038;-59
2021/05/08 02:53:31;;;;;;;0.95;0.80;;;22.00;40.10;;;;;;5045980;28;20037;-50
2021/05/08 02:55:57;;;;;;;1.23;0.77;;;22.00;40.10;;;;;;5041646;28;20124;-54
2021/05/08 02:58:23;;;;;;;1.20;0.80;;;22.00;40.10;;;;;;5034251;28;20100;-54
2021/05/08 03:00:48;;;;;;;1.25;0.80;;;21.90;40.10;;;;;;5026755;28;20129;-56
2021/05/08 03:03:14;;;;;;;0.70;0.70;;;22.00;40.10;;;;;;5040271;28;20072;-56
2021/05/08 03:05:39;;;;;;;2.83;0.90;;;21.90;40.10;;;;;;5036690;28;20037;-58
2021/05/08 03:08:05;;;;;;;0.60;0.60;;;21.90;40.20;;;;;;5027592;28;20033;-56
2021/05/08 03:10:31;;;;;;;1.15;0.82;;;21.90;40.20;;;;;;5045995;28;20032;-55
2021/05/08 03:12:56;;;;;;;0.82;0.80;;;21.90;40.20;;;;;;5043405;28;20064;-52
2021/05/08 03:15:23;;;;;;;1.15;0.77;;;21.80;40.20;;;;;;5042219;28;20078;-58
2021/05/08 03:17:48;;;;;;;0.90;0.80;;;21.80;40.20;;;;;;5045767;28;20032;-57
2021/05/08 03:20:14;;;;;;;0.85;0.70;;;21.80;40.30;;;;;;5045497;28;20029;-52
2021/05/08 03:22:40;;;;;;;1.15;0.90;;;21.80;40.30;;;;;;5040686;28;20079;-55
2021/05/08 03:25:06;;;;;;;0.95;0.80;;;21.70;40.30;;;;;;5045834;28;20029;-55
2021/05/08 03:27:32;;;;;;;1.15;0.73;;;21.70;40.30;;;;;;5042163;28;20037;-54
2021/05/08 03:29:57;;;;;;;0.93;0.70;;;21.70;40.30;;;;;;5034655;28;20063;-56
2021/05/08 03:32:23;;;;;;;0.90;0.85;;;21.70;40.30;;;;;;5045206;28;20395;-56
2021/05/08 03:34:48;;;;;;;0.77;0.70;;;21.70;40.40;;;;;;5032548;28;20057;-51
2021/05/08 03:37:14;;;;;;;0.85;0.70;;;21.70;40.40;;;;;;5045443;28;20036;-58
2021/05/08 03:39:40;;;;;;;1.27;0.80;;;21.60;40.40;;;;;;5044874;28;20107;-54
2021/05/08 03:42:06;;;;;;;0.98;0.70;;;21.60;40.40;;;;;;5050319;28;20041;-53
2021/05/08 03:44:31;;;;;;;0.60;0.60;;;21.60;40.40;;;;;;5045628;28;20032;-52
2021/05/08 03:46:57;;;;;;;1.30;0.70;;;21.60;40.50;;;;;;5047391;28;20037;-55
2021/05/08 03:49:23;;;;;;;1.02;0.80;;;21.50;40.40;;;;;;5049125;28;20116;-56
2021/05/08 03:51:49;;;;;;;1.00;0.80;;;21.50;40.40;;;;;;5041038;28;20170;-55
2021/05/08 03:54:15;;;;;;;1.40;0.70;;;21.50;40.50;;;;;;5042577;28;20033;-52
2021/05/08 03:56:41;;;;;;;0.70;0.70;;;21.50;40.40;;;;;;5047252;28;20024;-53
2021/05/08 03:59:06;;;;;;;0.77;0.68;;;21.50;40.50;;;;;;5049873;28;20025;-54
2021/05/08 04:01:32;;;;;;;0.95;0.77;;;21.50;40.50;;;;;;5038484;28;20130;-57
2021/05/08 04:03:57;;;;;;;0.82;0.70;;;21.40;40.50;;;;;;5038856;28;20044;-56
2021/05/08 04:06:23;;;;;;;1.35;0.70;;;21.40;40.60;;;;;;5037559;28;20349;-57
2021/05/08 04:08:49;;;;;;;1.35;0.85;;;21.40;40.60;;;;;;5050673;28;20049;-55
2021/05/08 04:11:14;;;;;;;0.70;0.70;;;21.40;40.60;;;;;;5040605;28;20128;-56
2021/05/08 04:13:40;;;;;;;1.20;0.80;;;21.40;40.60;;;;;;5049111;28;20025;-56
2021/05/08 04:16:06;;;;;;;1.52;0.80;;;21.40;40.60;;;;;;5040866;28;21895;-58
2021/05/08 04:18:32;;;;;;;1.30;0.80;;;21.30;40.60;;;;;;5048382;28;20434;-53
2021/05/08 04:20:57;;;;;;;1.20;0.70;;;21.30;40.60;;;;;;5050776;28;20095;-52
2021/05/08 04:23:23;;;;;;;1.30;0.80;;;21.30;40.60;;;;;;5049817;28;20394;-58
2021/05/08 04:25:49;;;;;;;2.13;0.80;;;21.30;40.60;;;;;;5037719;28;20074;-54
2021/05/08 04:28:14;;;;;;;0.90;0.80;;;21.30;40.70;;;;;;5046402;28;20021;-51
2021/05/08 04:30:40;;;;;;;0.70;0.65;;;21.20;40.60;;;;;;5044924;28;20281;-60
2021/05/08 04:33:06;;;;;;;0.98;0.70;;;21.20;40.60;;;;;;5045658;28;20105;-53
2021/05/08 04:35:31;;;;;;;0.85;0.70;;;21.20;40.60;;;;;;5047988;28;20029;-51
2021/05/08 04:38:04;;;;;;;0.80;0.70;;;21.20;41.20;;;;;;5046407;28;20110;-55
2021/05/08 04:40:30;;;;;;;0.90;0.73;;;21.20;40.70;;;;;;5042406;28;20037;-52
2021/05/08 04:42:55;;;;;;;0.98;0.70;;;21.20;40.70;;;;;;5044828;28;20055;-56
2021/05/08 04:45:24;;;;;;;1.17;0.70;;;21.20;40.70;;;;;;5044044;28;20086;-57
2021/05/08 04:47:51;;;;;;;0.93;0.70;;;21.20;40.70;;;;;;5039781;28;20092;-52
2021/05/08 04:50:17;;;;;;;0.70;0.70;;;21.10;40.70;;;;;;5048571;28;20122;-58
2021/05/08 04:52:42;;;;;;;0.93;0.73;;;21.10;40.70;;;;;;5049387;28;20079;-55
2021/05/08 04:55:08;;;;;;;0.77;0.70;;;21.10;40.70;;;;;;5042020;28;20021;-56
2021/05/08 04:57:34;;;;;;;0.70;0.70;;;21.10;40.80;;;;;;5037677;28;20043;-54
2021/05/08 04:59:59;;;;;;;1.13;0.70;;;21.00;40.80;;;;;;5038159;28;20064;-55
2021/05/08 05:02:25;;;;;;;0.70;0.60;;;21.10;40.80;;;;;;5043736;28;20048;-61
2021/05/08 05:04:51;;;;;;;1.58;0.70;;;21.00;40.80;;;;;;5046794;28;20036;-55
2021/05/08 05:07:16;;;;;;;0.98;0.70;;;21.10;40.80;;;;;;5033419;28;20092;-53
2021/05/08 05:09:42;;;;;;;0.93;0.70;;;21.10;40.90;;;;;;5033237;28;20023;-60
2021/05/08 05:12:08;;;;;;;0.75;0.70;;;21.00;40.80;;;;;;5033622;28;20059;-57
2021/05/08 05:14:33;;;;;;;1.27;0.80;;;21.00;40.90;;;;;;5046117;28;20021;-54
2021/05/08 05:16:59;;;;;;;0.70;0.70;;;21.00;40.90;;;;;;5031182;28;20103;-59
2021/05/08 05:19:24;;;;;;;0.70;0.70;;;21.00;40.90;;;;;;5036977;28;20044;-57
2021/05/08 05:21:50;;;;;;;1.02;0.70;;;20.90;40.80;;;;;;5040972;28;20069;-59
2021/05/08 05:24:16;;;;;;;0.75;0.70;;;21.00;40.90;;;;;;5044697;28;20040;-56
2021/05/08 05:26:41;;;;;;;0.70;0.70;;;21.00;40.90;;;;;;5037491;28;20041;-54
2021/05/08 05:29:09;;;;;;;0.77;0.68;;;20.90;40.90;;;;;;5045354;28;20426;-62
2021/05/08 05:31:36;;;;;;;0.60;0.60;;;20.90;40.90;;;;;;5038414;28;20148;-58
2021/05/08 05:34:01;;;;;;;0.60;0.60;;;20.90;40.90;;;;;;5045454;28;20310;-59
2021/05/08 05:36:28;;;;;;;0.70;0.63;;;20.90;40.90;;;;;;5033932;28;20079;-55
2021/05/08 05:38:53;;;;;;;1.10;1.00;;;20.90;40.90;;;;;;5045962;28;20032;-56
2021/05/08 05:41:19;;;;;;;0.85;0.77;;;20.90;40.90;;;;;;5045318;28;20025;-54
2021/05/08 05:43:44;;;;;;;0.68;0.57;;;20.90;41.50;;;;;;5044880;28;20112;-57
2021/05/08 05:46:10;;;;;;;0.93;0.73;;;20.90;41.00;;;;;;5042032;28;20029;-55
2021/05/08 05:48:35;;;;;;;0.95;0.80;;;20.90;41.00;;;;;;5042121;28;20136;-59
2021/05/08 05:51:01;;;;;;;0.60;0.60;;;20.90;41.00;;;;;;5042558;28;20036;-54
2021/05/08 05:53:27;;;;;;;1.00;0.90;;;20.80;41.00;;;;;;5045609;28;20109;-59
2021/05/08 05:55:52;;;;;;;0.90;0.70;;;20.80;41.00;;;;;;5046799;28;20773;-64
2021/05/08 05:58:18;;;;;;;0.77;0.60;;;20.80;41.00;;;;;;5040701;28;20498;-60
2021/05/08 06:00:43;;;;;;;0.80;0.68;;;20.80;41.00;;;;;;5039402;28;20041;-63
2021/05/08 06:03:09;;;;;;;0.98;0.70;;;20.80;41.00;;;;;;5033196;28;20048;-61
2021/05/08 06:05:34;;;;;;;0.63;0.60;;;20.80;41.10;;;;;;5040137;28;20128;-60
2021/05/08 06:08:00;;;;;;;1.02;0.70;;;20.80;41.00;;;;;;5046499;28;20036;-59
2021/05/08 06:10:26;;;;;;;1.05;0.70;;;20.80;41.00;;;;;;5040557;28;20107;-59
2021/05/08 06:12:51;;;;;;;0.80;0.70;;;20.80;41.10;;;;;;5044139;28;20100;-57
2021/05/08 06:15:17;;;;;;;2.13;0.70;;;20.80;41.10;;;;;;5036112;28;20029;-61
2021/05/08 06:17:43;;;;;;;1.10;0.70;;;20.80;41.40;;;;;;5043214;28;20102;-63
2021/05/08 06:20:09;;;;;;;0.82;0.70;;;20.80;41.30;;;;;;5037941;28;20025;-61
2021/05/08 06:22:34;;;;;;;1.38;0.70;;;20.80;41.30;;;;;;5032994;28;20416;-59
2021/05/08 06:25:00;;;;;;;1.00;0.70;;;20.70;41.20;;;;;;5035616;28;20174;-61
2021/05/08 06:27:27;;;;;;;0.82;0.60;;;20.70;41.20;;;;;;5024784;28;20057;-60
2021/05/08 06:29:52;;;;;;;0.80;0.63;;;20.70;41.30;;;;;;5031305;28;20041;-61
2021/05/08 06:32:18;;;;;;;1.83;0.73;;;20.70;41.40;;;;;;5030366;28;20361;-58
2021/05/08 06:34:44;;;;;;;0.85;0.70;;;20.70;41.40;;;;;;5023465;28;20033;-60
2021/05/08 06:37:09;;;;;;;0.88;0.60;;;20.70;41.40;;;;;;5023988;28;20120;-60
2021/05/08 06:39:35;;;;;;;1.38;0.70;;;20.70;41.50;;;;;;5026771;28;20040;-58
2021/05/08 06:42:01;;;;;;;1.08;0.70;;;20.70;41.50;;;;;;5026698;28;20041;-59
2021/05/08 06:44:27;;;;;;;0.80;0.60;;;20.70;41.50;;;;;;5040656;28;20380;-62
2021/05/08 06:46:56;;;;;;;1.05;0.60;;;20.70;41.50;;;;;;5044922;28;20119;-61
2021/05/08 06:49:21;;;;;;;0.57;0.55;;;20.70;41.60;;;;;;5035848;28;20033;-62
2021/05/08 06:51:47;;;;;;;0.88;0.70;;;20.60;41.50;;;;;;5033423;28;20410;-60
2021/05/08 06:54:13;;;;;;;0.80;0.63;;;20.70;41.60;;;;;;5027728;28;20040;-62
2021/05/08 06:56:39;;;;;;;0.90;0.60;;;20.70;41.60;;;;;;5036045;28;20033;-60
2021/05/08 06:59:05;;;;;;;1.02;0.70;;;20.70;41.60;;;;;;5037781;28;20029;-60
2021/05/08 07:01:30;;;;;;;1.50;0.70;;;20.60;41.60;;;;;;5036537;28;20061;-60
2021/05/08 07:03:56;;;;;;;0.70;0.60;;;20.60;41.60;;;;;;5037966;28;20025;-54
2021/05/08 07:06:25;;;;;;;1.33;0.80;;;20.60;41.70;;;;;;5031962;28;20025;-59
2021/05/08 07:08:52;;;;;;;1.17;0.60;;;20.60;41.70;;;;;;5027795;28;20500;-59
2021/05/08 07:11:17;;;;;;;0.85;0.60;;;20.60;41.70;;;;;;5039443;28;20422;-60
2021/05/08 07:13:43;;;;;;;0.90;0.73;;;20.60;41.70;;;;;;5034445;28;20033;-59
2021/05/08 07:16:08;;;;;;;1.75;0.70;;;20.70;41.70;;;;;;5033657;28;20348;-60
2021/05/08 07:18:34;;;;;;;1.10;0.65;;;20.60;41.70;;;;;;5034262;28;20029;-62
2021/05/08 07:20:59;;;;;;;1.23;0.80;;;20.60;41.70;;;;;;5035965;28;20033;-60
2021/05/08 07:23:25;;;;;;;0.90;0.63;;;20.60;41.70;;;;;;5038801;28;20055;-60
2021/05/08 07:25:51;;;;;;;1.10;0.70;;;20.60;41.70;;;;;;5033714;28;20105;-60
2021/05/08 07:28:23;;;;;;;0.98;0.60;;;20.60;41.70;;;;;;5031917;28;20140;-59
2021/05/08 07:30:50;;;;;;;1.02;0.70;;;20.60;41.70;;;;;;5035540;28;20049;-60
2021/05/08 07:33:17;;;;;;;1.40;0.73;;;20.60;41.70;;;;;;5028473;28;20891;-58
2021/05/08 07:35:44;;;;;;;0.70;0.70;;;20.60;41.70;;;;;;5037536;28;20128;-62
2021/05/08 07:38:10;;;;;;;0.95;0.70;;;20.60;41.70;;;;;;5039167;28;20875;-59
2021/05/08 07:40:38;;;;;;;1.00;0.70;;;20.60;41.70;;;;;;5042377;28;20021;-57
2021/05/08 07:43:04;;;;;;;1.38;0.82;;;20.60;41.70;;;;;;5042849;28;20029;-62
2021/05/08 07:45:30;;;;;;;0.73;0.73;;;20.50;41.70;;;;;;5036378;28;20028;-61
2021/05/08 07:47:57;;;;;;;1.42;0.80;;;20.50;41.80;;;;;;5035171;28;20090;-59
2021/05/08 07:50:24;;;;;;;1.83;0.80;;;20.50;41.80;;;;;;5036370;28;20026;-61
2021/05/08 07:52:49;;;;;;;2.08;0.90;;;20.50;41.80;;;;;;5038630;28;20109;-63
2021/05/08 07:55:15;;;;;;;1.17;0.70;;;20.50;41.80;;;;;;5028167;28;20509;-57
2021/05/08 07:57:41;;;;;;;2.20;0.80;;;20.50;41.80;;;;;;5040178;28;20032;-56
2021/05/08 08:00:09;;;;;;;1.40;0.90;;;20.50;41.90;;;;;;5027720;28;20103;-57
2021/05/08 08:02:36;;;;;;;2.75;0.90;;;20.60;41.90;;;;;;5038252;28;20405;-60
2021/05/08 08:05:03;;;;;;;1.40;0.70;;;20.50;41.90;;;;;;5027437;28;20048;-59
2021/05/08 08:07:28;;;;;;;1.50;0.70;;;20.50;41.90;;;;;;5033308;28;20141;-59
2021/05/08 08:09:54;;;;;;;1.48;0.70;;;20.50;41.90;;;;;;5031297;28;20115;-60
2021/05/08 08:12:20;;;;;;;1.17;0.70;;;20.50;41.90;;;;;;5053616;28;20122;-60
2021/05/08 08:14:46;;;;;;;1.67;0.82;;;20.50;42.00;;;;;;5036285;28;20065;-62
2021/05/08 08:17:12;;;;;;;1.63;0.80;;;20.50;42.00;;;;;;5039936;28;20613;-61
2021/05/08 08:19:37;;;;;;;2.30;0.80;;;20.50;42.00;;;;;;5037334;28;20033;-62
2021/05/08 08:22:03;;;;;;;2.83;0.70;;;20.50;42.00;;;;;;5041806;28;20040;-61
2021/05/08 08:24:29;;;;;;;1.20;0.70;;;20.50;42.00;;;;;;5048408;28;20066;-60
2021/05/08 08:26:54;;;;;;;1.77;0.80;;;20.50;42.00;;;;;;5065149;28;20135;-59
2021/05/08 08:29:20;;;;;;;1.80;0.90;;;20.50;42.10;;;;;;5053581;28;20511;-63
2021/05/08 08:31:46;;;;;;;1.30;0.77;;;20.50;42.10;;;;;;5056146;28;20115;-60
2021/05/08 08:34:12;;;;;;;1.80;0.80;;;20.50;42.20;;;;;;5045264;28;20067;-61
2021/05/08 08:36:38;;;;;;;1.48;0.80;;;20.50;42.10;;;;;;5046441;28;20336;-60
2021/05/08 08:39:05;;;;;;;3.28;0.95;;;20.50;42.10;;;;;;5042865;28;20017;-61
2021/05/08 08:41:31;;;;;;;2.05;1.00;;;20.50;42.10;;;;;;5049872;28;20029;-60
2021/05/08 08:43:57;;;;;;;2.08;0.80;;;20.50;42.10;;;;;;5048779;28;20121;-63
2021/05/08 08:46:23;;;;;;;1.17;0.80;;;20.50;42.10;;;;;;5048999;28;20143;-62
2021/05/08 08:48:50;;;;;;;1.95;0.70;;;20.50;42.10;;;;;;5046462;28;20326;-60
2021/05/08 08:51:15;;;;;;;2.53;0.90;;;20.50;42.10;;;;;;5039557;28;20061;-61
2021/05/08 08:53:42;;;;;;;1.15;0.75;;;20.50;42.10;;;;;;5047822;28;20048;-62
2021/05/08 08:56:08;;;;;;;1.83;0.80;;;20.50;42.10;;;;;;5046188;28;20025;-63
2021/05/08 08:58:35;;;;;;;2.55;0.88;;;20.50;42.10;;;;;;5046341;28;20064;-63
2021/05/08 09:01:04;;;;;;;2.30;1.08;;;20.50;42.10;;;;;;5038836;28;20029;-63
2021/05/08 09:03:30;;;;;;;1.27;0.73;;;20.50;42.10;;;;;;5039863;28;20032;-59
2021/05/08 09:05:58;;;;;;;1.75;0.90;;;20.50;42.10;;;;;;5037796;28;20083;-60
2021/05/08 09:08:24;;;;;;;3.43;1.00;;;20.50;42.10;;;;;;5036977;28;20112;-61
2021/05/08 09:10:51;;;;;;;2.38;0.90;;;20.50;42.10;;;;;;5050577;28;20401;-61
2021/05/08 09:13:19;;;;;;;1.55;0.80;;;20.50;42.10;;;;;;5048416;28;20021;-60
2021/05/08 09:15:47;;;;;;;1.58;0.90;;;20.50;42.10;;;;;;5044892;28;20075;-61
2021/05/08 09:18:34;;;;;;;2.08;0.88;;;20.50;42.10;;;;;;5038161;28;20029;-62
2021/05/08 09:20:59;;;;;;;1.90;0.95;;;20.50;42.00;;;;;;5035784;28;20032;-60
2021/05/08 09:23:31;;;;;;;2.67;1.02;;;20.50;41.90;;;;;;5037059;28;20592;-59
2021/05/08 09:26:00;;;;;;;1.77;0.98;;;20.50;41.80;;;;;;5036158;28;20065;-58
2021/05/08 09:28:28;;;;;;;1.63;0.80;;;20.50;41.80;;;;;;5042159;28;20033;-60
2021/05/08 09:30:54;;;;;;;2.25;1.00;;;20.50;41.80;;;;;;5039643;28;20787;-58
2021/05/08 09:33:25;;;;;;;2.30;0.85;;;20.50;41.80;;;;;;5041273;28;20140;-54
2021/05/08 09:36:07;;;;;;;1.27;0.77;;;20.50;41.80;;;;;;5039910;28;20032;-58
2021/05/08 09:38:44;;;;;;;1.85;0.80;;;20.50;41.80;;;;;;5038429;28;20457;-55
2021/05/08 09:41:12;;;;;;;2.00;1.20;;;20.50;41.80;;;;;;5030506;28;20040;-57
2021/05/08 09:43:38;;;;;;;2.03;0.95;;;20.50;41.80;;;;;;5035593;28;20465;-60
2021/05/08 09:46:08;;;;;;;2.42;1.00;;;20.50;41.80;;;;;;5036871;28;20025;-55
2021/05/08 09:48:35;;;;;;;2.45;1.25;;;20.50;42.00;;;;;;5035439;28;20028;-60
2021/05/08 09:51:22;;;;;;;2.15;0.90;;;20.50;41.90;;;;;;5042366;28;20101;-62
2021/05/08 09:53:55;;;;;;;2.95;0.90;;;20.50;42.00;;;;;;5033496;28;20626;-58
2021/05/08 09:56:38;;;;;;;2.30;0.90;;;20.60;42.10;;;;;;5042997;28;20024;-57
2021/05/08 09:59:23;;;;;;;2.42;0.98;;;20.50;42.10;;;;;;5036138;28;20022;-54
2021/05/08 10:02:01;;;;;;;1.40;0.80;;;20.60;42.20;;;;;;5042177;28;20060;-59
2021/05/08 10:04:33;;;;;;;1.88;0.93;;;20.60;42.30;;;;;;5030167;28;20049;-57
2021/05/08 10:07:15;;;;;;;2.28;0.88;;;20.60;42.30;;;;;;5037103;28;20349;-61
2021/05/08 10:09:43;;;;;;;2.50;0.90;;;20.60;42.40;;;;;;5033419;28;20116;-58
2021/05/08 10:12:11;;;;;;;1.98;1.00;;;20.60;42.40;;;;;;5039199;28;20024;-59
2021/05/08 10:14:38;;;;;;;2.95;0.90;;;20.60;42.40;;;;;;5041646;28;20021;-60
2021/05/08 10:17:04;;;;;;;2.78;1.23;;;20.60;42.50;;;;;;5037232;28;20053;-58
2021/05/08 10:19:31;;;;;;;1.98;0.90;;;20.60;42.40;;;;;;5033414;28;20033;-61
2021/05/08 10:22:00;;;;;;;1.52;0.82;;;20.60;42.40;;;;;;5039993;28;20050;-60
2021/05/08 10:24:26;;;;;;;2.83;0.90;;;20.60;42.40;;;;;;5029051;28;20056;-62
2021/05/08 10:26:57;;;;;;;0.98;0.80;;;20.60;42.40;;;;;;5034816;28;20763;-58
2021/05/08 10:29:27;;;;;;;1.40;0.70;;;20.60;42.40;;;;;;5030071;28;20375;-59
2021/05/08 10:31:59;;;;;;;2.42;0.73;;;20.60;42.40;;;;;;5029298;28;20200;-61
2021/05/08 10:34:56;;;;;;;2.63;0.88;;;20.60;42.50;;;;;;5034456;28;20028;-62
2021/05/08 10:37:21;;;;;;;1.67;0.80;;;20.60;42.40;;;;;;5022609;28;20148;-61
2021/05/08 10:39:47;;;;;;;1.85;0.70;;;20.60;42.30;;;;;;5043493;28;20104;-63
2021/05/08 10:42:41;;;;;;;1.40;0.70;;;20.60;42.30;;;;;;5055293;28;20077;-58
2021/05/08 10:45:19;;;;;;;1.83;0.80;;;20.60;42.30;;;;;;5041267;28;20034;-61
2021/05/08 10:48:02;;;;;;;2.17;0.80;;;20.60;42.20;;;;;;5023948;28;20033;-59
2021/05/08 10:50:38;;;;;;;2.20;0.80;;;20.60;42.30;;;;;;5048770;28;20095;-60
2021/05/08 10:53:05;;;;;;;1.25;0.70;;;20.60;42.20;;;;;;5046242;28;20040;-56
2021/05/08 10:55:50;;;;;;;2.97;0.82;;;20.60;42.10;;;;;;5058776;28;20020;-61
2021/05/08 10:58:17;;;;;;;1.50;0.80;;;20.60;42.10;;;;;;5064868;28;20115;-60
2021/05/08 11:00:46;;;;;;;1.92;0.90;;;20.60;42.10;;;;;;5055963;28;20041;-61
2021/05/08 11:03:13;;;;;;;1.95;0.70;;;20.60;42.00;;;;;;5039594;28;20032;-60
2021/05/08 11:05:56;;;;;;;1.10;0.82;;;20.60;42.20;;;;;;5028048;28;20993;-57
2021/05/08 11:08:27;;;;;;;1.73;0.90;;;20.60;42.10;;;;;;5038253;28;20061;-60
2021/05/08 11:11:05;;;;;;;2.40;0.90;;;20.60;42.10;;;;;;5050331;28;20044;-59
2021/05/08 11:13:40;;;;;;;2.83;0.70;;;20.60;42.20;;;;;;5042945;28;20461;-61
2021/05/08 11:16:06;;;;;;;2.00;0.90;;;20.60;42.20;;;;;;5034418;28;20048;-59
2021/05/08 11:18:35;;;;;;;1.45;0.80;;;20.60;42.20;;;;;;5022459;28;20029;-59
2021/05/08 11:21:07;;;;;;;1.90;0.95;;;20.70;42.30;;;;;;5027740;28;20029;-62
2021/05/08 11:23:57;;;;;;;2.50;0.85;;;20.60;42.20;;;;;;5041769;28;20052;-62
2021/05/08 11:29:03;;;;;;;1.95;0.80;;;20.60;42.20;;;;;;5033580;28;19920;-60
2021/05/08 11:31:34;;;;;;;1.50;0.80;;;20.70;42.30;;;;;;5034462;28;20041;-58
2021/05/08 11:34:20;;;;;;;1.65;0.80;;;20.70;42.20;;;;;;5028806;28;20040;-63
2021/05/08 11:37:09;;;;;;;3.08;0.80;;;20.70;42.20;;;;;;5037963;28;20417;-57
2021/05/08 11:39:43;;;;;;;;;;;20.70;42.20;;;;;;5045038;28;20045;-63
2021/05/08 11:42:17;;;;;;;1.02;0.60;;;20.70;42.20;;;;;;5029127;28;19932;-61
2021/05/08 11:44:47;;;;;;;2.28;0.80;;;20.70;42.20;;;;;;5028423;28;20029;-60
2021/05/08 11:47:36;;;;;;;1.05;0.77;;;20.70;42.10;;;;;;5042131;28;20151;-58
2021/05/08 11:50:11;;;;;;;1.10;0.63;;;20.70;42.10;;;;;;5029947;28;20088;-60
2021/05/08 11:52:56;;;;;;;0.82;0.70;;;20.70;42.20;;;;;;5027749;28;20060;-60
2021/05/08 11:55:24;;;;;;;3.13;0.73;;;20.70;42.20;;;;;;5037548;28;20407;-61
2021/05/08 11:57:55;;;;;;;1.90;0.80;;;20.70;42.20;;;;;;5034112;28;20017;-61
2021/05/08 12:00:22;;;;;;;1.80;0.70;;;20.70;42.20;;;;;;5041718;28;20024;-59
2021/05/08 12:02:49;;;;;;;2.17;0.80;;;20.70;42.20;;;;;;5030363;28;20022;-62
2021/05/08 12:05:15;;;;;;;1.35;0.73;;;20.70;42.20;;;;;;5043767;28;20373;-63
2021/05/08 12:07:43;;;;;;;1.95;0.80;;;20.70;42.20;;;;;;5029091;28;20034;-59
2021/05/08 12:10:15;;;;;;;2.85;0.77;;;20.70;41.80;;;;;;5039870;28;20029;-63
2021/05/08 12:12:47;;;;;;;0.88;0.60;;;20.80;42.30;;;;;;5044193;28;20502;-61
2021/05/08 12:15:19;;;;;;;2.65;0.98;;;20.70;42.30;;;;;;5039123;28;20025;-60
2021/05/08 12:17:45;;;;;;;2.78;0.90;;;20.70;42.30;;;;;;5041714;28;20021;-60
2021/05/08 12:20:11;;;;;;;1.40;0.70;;;20.80;42.40;;;;;;5045418;28;20170;-59
2021/05/08 12:22:36;;;;;;;2.40;0.80;;;20.70;42.40;;;;;;5039447;28;20029;-59
2021/05/08 12:25:04;;;;;;;3.38;0.90;;;20.80;42.50;;;;;;5048475;28;20766;-59
2021/05/08 12:27:29;;;;;;;2.28;0.90;;;20.80;42.50;;;;;;5049269;28;20048;-59
2021/05/08 12:29:57;;;;;;;1.52;0.70;;;20.80;42.50;;;;;;5048589;28;20372;-59
2021/05/08 12:32:23;;;;;;;2.60;0.70;;;20.80;42.50;;;;;;5045554;28;20140;-60
2021/05/08 12:34:53;;;;;;;1.50;0.80;;;20.80;42.50;;;;;;5047096;28;20025;-58
2021/05/08 12:37:18;;;;;;;1.65;0.77;;;20.80;42.40;;;;;;5049953;28;20032;-59
2021/05/08 12:39:45;;;;;;;1.42;0.80;;;20.80;42.40;;;;;;5040353;28;20459;-59
2021/05/08 12:42:10;;;;;;;2.83;0.80;;;20.80;42.90;;;;;;5027558;28;20032;-61
2021/05/08 12:44:39;;;;;;;1.40;0.70;;;20.80;42.30;;;;;;5045933;28;20387;-59
2021/05/08 12:47:23;;;;;;;1.65;0.80;;;20.80;42.30;;;;;;5034466;28;20139;-59
2021/05/08 12:50:12;;;;;;;1.35;0.80;;;20.80;42.30;;;;;;5041026;28;20383;-60
2021/05/08 12:52:39;;;;;;;1.60;0.80;;;20.80;42.20;;;;;;5047484;28;20106;-59
2021/05/08 12:55:06;;;;;;;2.03;0.90;;;20.80;42.20;;;;;;5042687;28;20036;-61
2021/05/08 12:57:34;;;;;;;2.75;0.80;;;20.80;42.10;;;;;;5048570;28;20531;-61
2021/05/08 13:00:11;;;;;;;2.00;0.77;;;20.80;42.10;;;;;;5039308;28;20033;-60
2021/05/08 13:02:39;;;;;;;2.40;0.90;;;20.90;42.10;;;;;;5048796;28;20041;-58
2021/05/08 13:05:16;;;;;;;1.75;0.80;;;20.80;42.10;;;;;;5046068;28;20088;-60